Time;durP1;ratioP1;P1;durP2;ratioP2;P2;SDS_P1;SDS_P2;PMS_P1;PMS_P2;Temp;Humidity;BMP_temperature;BMP_pressure;BME280_temperature;BME280_humidity;BME280_pressure;Samples;Min_cycle;Max_cycle;Signal;HPM_P1;HPM_P2
2022/10/11 00:00:35;;;;;;;23.20;21.80;;;;;;;12.99;60.33;102358.56;4991848;28;20034;-79
2022/10/11 00:03:02;;;;;;;24.00;22.60;;;;;;;12.97;60.46;102352.53;4997937;28;20041;-79
2022/10/11 00:05:27;;;;;;;23.05;21.75;;;;;;;12.96;60.36;102359.00;4995207;28;20137;-77
2022/10/11 00:07:53;;;;;;;25.10;23.50;;;;;;;12.94;60.42;102361.09;5006771;28;20125;-77
2022/10/11 00:10:19;;;;;;;24.45;22.73;;;;;;;12.92;60.36;102360.50;4991462;28;20479;-77
2022/10/11 00:12:45;;;;;;;24.25;22.67;;;;;;;12.92;60.56;102363.19;4999594;28;20084;-77
2022/10/11 00:15:19;;;;;;;24.23;22.77;;;;;;;12.91;60.50;102360.72;5010680;28;20482;-78
2022/10/11 00:17:45;;;;;;;23.48;22.13;;;;;;;12.89;60.43;102360.09;4996014;28;20050;-78
2022/10/11 00:20:11;;;;;;;24.58;23.10;;;;;;;12.86;60.37;102358.66;4990913;28;20420;-77
2022/10/11 00:22:38;;;;;;;23.95;22.52;;;;;;;12.85;60.44;102359.72;4995329;28;20026;-79
2022/10/11 00:25:05;;;;;;;24.27;22.88;;;;;;;12.84;60.37;102360.75;4995614;28;20181;-79
2022/10/11 00:27:32;;;;;;;23.02;21.73;;;;;;;12.82;60.33;102365.56;5011473;28;20049;-79
2022/10/11 00:29:58;;;;;;;23.75;22.15;;;;;;;12.80;60.12;102359.53;5011749;28;20045;-79
2022/10/11 00:32:23;;;;;;;23.67;22.13;;;;;;;12.79;60.21;102366.00;4996307;28;20406;-79
2022/10/11 00:34:48;;;;;;;24.35;22.75;;;;;;;12.78;60.32;102378.75;4980946;28;20478;-79
2022/10/11 00:37:14;;;;;;;24.67;23.00;;;;;;;12.76;60.41;102380.00;5014321;28;20030;-79
2022/10/11 00:39:39;;;;;;;25.15;23.48;;;;;;;12.74;60.42;102376.66;4998230;28;20034;-79
2022/10/11 00:42:13;;;;;;;22.92;21.45;;;;;;;12.73;60.27;102391.28;4973848;28;20043;-78
2022/10/11 00:44:42;;;;;;;23.08;21.63;;;;;;;12.72;60.10;102389.59;4996104;28;20116;-79
2022/10/11 00:47:13;;;;;;;22.70;21.35;;;;;;;12.70;60.22;102389.84;5009200;28;20070;-78
2022/10/11 00:49:42;;;;;;;24.05;22.08;;;;;;;12.69;59.98;102398.19;4995953;28;20466;-77
2022/10/11 00:52:15;;;;;;;;;;;;;;;12.67;60.01;102397.56;4997021;28;20325;-77
2022/10/11 00:54:44;;;;;;;20.98;19.77;;;;;;;12.64;59.97;102392.56;5011766;28;19922;-76
2022/10/11 00:57:16;;;;;;;21.77;20.52;;;;;;;12.62;60.01;102390.06;4986318;28;20125;-77
2022/10/11 00:59:46;;;;;;;21.88;20.67;;;;;;;12.61;60.05;102395.72;4999877;28;20030;-78
2022/10/11 01:02:13;;;;;;;22.65;21.15;;;;;;;12.59;60.02;102395.09;5013770;28;20466;-79
2022/10/11 01:04:40;;;;;;;23.80;21.83;;;;;;;12.58;60.23;102398.88;4999470;28;20097;-77
2022/10/11 01:07:05;;;;;;;24.30;22.77;;;;;;;12.56;59.88;102397.19;4996593;28;20042;-79
2022/10/11 01:09:30;;;;;;;21.38;19.85;;;;;;;12.55;59.87;102397.44;4996805;28;20450;-78
2022/10/11 01:11:59;;;;;;;22.83;21.42;;;;;;;12.53;60.20;102397.63;5012861;28;20446;-78
2022/10/11 01:14:27;;;;;;;22.52;20.95;;;;;;;12.53;60.02;102403.06;5003404;28;20381;-77
2022/10/11 01:17:14;;;;;;;26.23;23.92;;;;;;;12.51;60.01;102410.56;5004123;28;20482;-77
2022/10/11 01:20:03;;;;;;;23.70;22.40;;;;;;;12.49;60.10;102403.69;4994896;28;20038;-77
2022/10/11 01:22:44;;;;;;;;;;;;;;;12.47;60.04;102405.78;4995329;28;20034;-77
2022/10/11 01:25:40;;;;;;;21.45;20.25;;;;;;;12.44;59.88;102403.50;5000656;28;20358;-78
2022/10/11 01:28:24;;;;;;;21.13;20.00;;;;;;;12.42;59.87;102409.13;5011844;28;20041;-77
2022/10/11 01:30:50;;;;;;;22.73;21.08;;;;;;;12.39;60.11;102406.84;5012451;28;20109;-78
2022/10/11 01:33:31;;;;;;;23.67;22.08;;;;;;;12.38;60.06;102410.63;4993805;28;20205;-78
2022/10/11 01:36:12;;;;;;;23.70;22.00;;;;;;;12.37;60.13;102408.94;4996159;28;20038;-77
2022/10/11 01:38:44;;;;;;;21.40;20.05;;;;;;;12.34;59.98;102412.91;5014308;28;20026;-77
2022/10/11 01:41:27;;;;;;;23.17;21.85;;;;;;;12.33;59.95;102413.13;5000742;28;20118;-77
2022/10/11 01:43:57;;;;;;;23.05;21.60;;;;;;;12.32;59.80;102409.59;4993480;28;20387;-77
2022/10/11 01:46:23;;;;;;;21.90;20.60;;;;;;;12.30;60.14;102413.56;4997497;28;20117;-78
2022/10/11 01:48:54;;;;;;;23.17;21.40;;;;;;;12.29;59.85;102414.59;4993396;28;20034;-77
2022/10/11 01:51:28;;;;;;;22.35;20.75;;;;;;;12.28;59.90;102415.66;5004826;28;20034;-77
2022/10/11 01:54:18;;;;;;;24.23;22.58;;;;;;;12.27;59.84;102408.56;5012772;28;20084;-77
2022/10/11 01:57:15;;;;;;;22.20;20.70;;;;;;;12.25;59.78;102416.09;5006470;28;20104;-77
2022/10/11 01:59:49;;;;;;;21.95;20.65;;;;;;;12.21;59.71;102404.81;4994667;28;20026;-78
2022/10/11 02:02:47;;;;;;;23.42;21.92;;;;;;;12.21;60.04;102418.38;5008295;28;20184;-78
2022/10/11 02:05:32;;;;;;;21.60;20.27;;;;;;;12.19;59.93;102416.91;4999171;28;20463;-77
2022/10/11 02:08:07;;;;;;;23.88;22.08;;;;;;;12.17;59.88;102422.56;5004890;28;20280;-78
2022/10/11 02:10:38;;;;;;;22.20;20.73;;;;;;;12.17;59.78;102425.28;5011850;28;20022;-77
2022/10/11 02:13:31;;;;;;;21.65;20.35;;;;;;;12.16;59.86;102425.47;5008260;28;20045;-77
2022/10/11 02:16:00;;;;;;;22.17;20.60;;;;;;;12.13;59.97;102419.44;5011937;28;20030;-78
2022/10/11 02:18:32;;;;;;;21.65;20.20;;;;;;;12.12;59.84;102427.78;5000713;28;20085;-78
2022/10/11 02:21:01;;;;;;;24.20;22.60;;;;;;;12.10;59.86;102424.47;5003824;28;20121;-77
2022/10/11 02:23:33;;;;;;;21.98;19.67;;;;;;;12.09;59.80;102429.00;4992984;28;20062;-78
2022/10/11 02:25:59;;;;;;;21.48;20.13;;;;;;;12.09;59.70;102426.31;4992761;28;20030;-77
2022/10/11 02:28:30;;;;;;;19.85;18.35;;;;;;;12.07;59.76;102424.84;4997019;28;20382;-78
2022/10/11 02:30:59;;;;;;;22.27;20.52;;;;;;;12.06;59.97;102420.50;5004826;28;20021;-78
2022/10/11 02:33:35;;;;;;;18.58;17.58;;;;;;;12.04;59.78;102420.69;4994036;28;20103;-78
2022/10/11 02:36:08;;;;;;;21.45;20.10;;;;;;;12.02;59.96;102425.50;4992665;28;20051;-78
2022/10/11 02:38:39;;;;;;;21.27;19.90;;;;;;;12.01;59.73;102423.00;5002196;28;20038;-78
2022/10/11 02:41:16;;;;;;;21.38;20.02;;;;;;;12.00;59.72;102432.19;5000359;28;20026;-78
2022/10/11 02:43:49;;;;;;;20.40;19.15;;;;;;;11.97;59.61;102422.59;5009815;28;20415;-78
2022/10/11 02:46:15;;;;;;;19.80;18.58;;;;;;;11.95;59.52;102415.75;4992308;28;20039;-79
2022/10/11 02:48:41;;;;;;;19.77;18.67;;;;;;;11.94;60.02;102425.72;5000987;28;20165;-78
2022/10/11 02:51:11;;;;;;;21.42;20.13;;;;;;;11.93;59.77;102428.66;5011009;28;20112;-79
2022/10/11 02:53:36;;;;;;;19.77;18.67;;;;;;;11.92;59.65;102425.13;5011540;28;20026;-78
2022/10/11 02:56:01;;;;;;;22.23;20.73;;;;;;;11.91;59.64;102426.13;5012462;28;20192;-79
2022/10/11 02:58:27;;;;;;;21.17;19.70;;;;;;;11.89;59.78;102422.81;4994898;28;20038;-78
2022/10/11 03:00:52;;;;;;;19.35;18.25;;;;;;;11.88;59.74;102426.56;4986261;28;20035;-78
2022/10/11 03:03:18;;;;;;;20.05;18.77;;;;;;;11.85;59.68;102427.78;4976005;28;20437;-79
2022/10/11 03:05:44;;;;;;;20.50;19.10;;;;;;;11.85;59.67;102424.25;4977409;28;20050;-78
2022/10/11 03:08:11;;;;;;;20.60;19.20;;;;;;;11.83;59.69;102432.56;4992796;28;20042;-79
2022/10/11 03:10:38;;;;;;;19.73;18.52;;;;;;;11.81;59.51;102434.66;5000545;28;20037;-78
2022/10/11 03:13:03;;;;;;;22.23;20.85;;;;;;;11.81;59.68;102431.13;5010581;28;20026;-78
2022/10/11 03:15:29;;;;;;;18.95;17.88;;;;;;;11.79;59.65;102427.78;4990458;28;20036;-78
2022/10/11 03:17:55;;;;;;;19.92;18.85;;;;;;;11.78;59.90;102432.38;4994323;28;20038;-79
2022/10/11 03:20:20;;;;;;;20.90;19.70;;;;;;;11.76;59.74;102431.75;5005933;28;20044;-78
2022/10/11 03:22:46;;;;;;;19.90;18.65;;;;;;;11.76;59.65;102436.34;5000403;28;20038;-78
2022/10/11 03:25:11;;;;;;;21.02;19.65;;;;;;;11.75;59.56;102442.78;5002817;28;20081;-78
2022/10/11 03:27:37;;;;;;;20.85;19.35;;;;;;;11.72;59.66;102438.63;5011123;28;20056;-78
2022/10/11 03:30:03;;;;;;;21.40;19.88;;;;;;;11.71;59.46;102442.38;5010670;28;20472;-78
2022/10/11 03:32:28;;;;;;;20.13;18.85;;;;;;;11.68;59.56;102446.31;4994791;28;20034;-79
2022/10/11 03:34:54;;;;;;;20.23;18.92;;;;;;;11.68;59.65;102448.19;5000902;28;20078;-79
2022/10/11 03:37:19;;;;;;;19.40;18.05;;;;;;;11.67;59.54;102446.56;5009177;28;20049;-79
2022/10/11 03:39:45;;;;;;;19.48;18.23;;;;;;;11.64;59.51;102445.09;5010005;28;20066;-78
2022/10/11 03:42:11;;;;;;;20.58;19.10;;;;;;;11.63;59.57;102454.22;4999702;28;20034;-79
2022/10/11 03:44:37;;;;;;;19.45;18.38;;;;;;;11.62;59.54;102451.75;4993207;28;20045;-79
2022/10/11 03:47:03;;;;;;;19.88;18.67;;;;;;;11.60;59.70;102454.66;4991132;28;20083;-79
2022/10/11 03:49:28;;;;;;;19.40;17.80;;;;;;;11.60;59.45;102459.25;4975929;28;20431;-79
2022/10/11 03:51:54;;;;;;;19.17;18.02;;;;;;;11.58;59.70;102454.03;4991792;28;20117;-79
2022/10/11 03:54:19;;;;;;;19.55;18.33;;;;;;;11.56;59.37;102456.09;4996433;28;20541;-78
2022/10/11 03:56:44;;;;;;;19.55;18.25;;;;;;;11.56;59.41;102457.97;5001519;28;20172;-79
2022/10/11 03:59:10;;;;;;;20.50;19.20;;;;;;;11.53;59.42;102459.22;4985633;28;20441;-79
2022/10/11 04:01:37;;;;;;;20.42;19.23;;;;;;;11.53;59.33;102458.41;4994680;28;20464;-79
2022/10/11 04:04:03;;;;;;;19.80;18.73;;;;;;;11.51;59.47;102457.78;4994535;28;20030;-79
2022/10/11 04:06:28;;;;;;;18.77;17.58;;;;;;;11.50;59.29;102454.22;4998326;28;20095;-79
2022/10/11 04:08:53;;;;;;;20.42;19.05;;;;;;;11.49;59.58;102468.81;5014818;28;20048;-78
2022/10/11 04:11:19;;;;;;;19.95;18.60;;;;;;;11.48;59.24;102467.13;5002871;28;20046;-78
2022/10/11 04:13:44;;;;;;;19.63;18.33;;;;;;;11.45;59.17;102465.66;5004076;28;20069;-79
2022/10/11 04:16:10;;;;;;;22.27;20.67;;;;;;;11.44;59.53;102465.88;5013985;28;20025;-79
2022/10/11 04:18:35;;;;;;;19.67;18.55;;;;;;;11.43;59.39;102475.88;4995225;28;20457;-79
2022/10/11 04:21:00;;;;;;;19.80;18.50;;;;;;;11.41;59.53;102475.22;4985708;28;20100;-78
2022/10/11 04:23:26;;;;;;;21.10;19.63;;;;;;;11.40;59.42;102479.00;5012702;28;20048;-78
2022/10/11 04:25:51;;;;;;;19.25;18.15;;;;;;;11.39;59.18;102474.63;5015267;28;20033;-78
2022/10/11 04:28:16;;;;;;;20.33;19.02;;;;;;;11.37;59.30;102475.88;4976363;28;20129;-79
2022/10/11 04:30:42;;;;;;;19.13;18.02;;;;;;;11.35;59.36;102477.94;5006542;28;20058;-79
2022/10/11 04:33:10;;;;;;;21.00;19.80;;;;;;;11.34;59.24;102481.66;4997259;28;20080;-79
2022/10/11 04:35:35;;;;;;;20.45;19.02;;;;;;;11.32;59.31;102478.38;4998584;28;20037;-78
2022/10/11 04:38:01;;;;;;;19.40;18.30;;;;;;;11.31;59.23;102473.97;4995055;28;20042;-78
2022/10/11 04:40:26;;;;;;;19.25;18.15;;;;;;;11.29;59.11;102487.72;5006756;28;20046;-78
2022/10/11 04:42:52;;;;;;;18.67;17.58;;;;;;;11.29;59.26;102485.00;5013561;28;20034;-78
2022/10/11 04:45:18;;;;;;;20.60;19.13;;;;;;;11.27;59.42;102478.97;5007443;28;20534;-78
2022/10/11 04:47:44;;;;;;;19.52;18.40;;;;;;;11.26;59.30;102488.09;4996964;28;20483;-79
2022/10/11 04:50:09;;;;;;;20.30;18.80;;;;;;;11.24;59.27;102493.75;5013266;28;20069;-78
2022/10/11 04:52:35;;;;;;;19.90;18.70;;;;;;;11.23;59.33;102493.94;5013690;28;20033;-79
2022/10/11 04:55:00;;;;;;;20.25;19.05;;;;;;;11.22;59.14;102489.56;4996030;28;20037;-78
2022/10/11 04:57:25;;;;;;;18.85;17.85;;;;;;;11.20;59.19;102495.19;4996234;28;20053;-79
2022/10/11 04:59:51;;;;;;;19.83;18.63;;;;;;;11.19;59.53;102501.63;4997373;28;20030;-79
2022/10/11 05:02:16;;;;;;;19.60;18.40;;;;;;;11.18;59.44;102493.72;4980847;28;20084;-79
2022/10/11 05:04:42;;;;;;;18.05;17.05;;;;;;;11.17;59.11;102492.06;4993255;28;20508;-78
2022/10/11 05:07:07;;;;;;;21.15;19.90;;;;;;;11.15;59.28;102496.81;4998769;28;20121;-78
2022/10/11 05:09:33;;;;;;;19.75;18.55;;;;;;;11.13;59.38;102497.03;4994018;28;20038;-78
2022/10/11 05:11:59;;;;;;;19.50;18.35;;;;;;;11.12;58.98;102499.94;5000342;28;20053;-77
2022/10/11 05:14:24;;;;;;;19.23;17.75;;;;;;;11.11;59.21;102506.38;4998454;28;20483;-78
2022/10/11 05:16:49;;;;;;;18.73;17.63;;;;;;;11.09;59.22;102495.78;4977064;28;20387;-77
2022/10/11 05:19:15;;;;;;;18.65;17.55;;;;;;;11.08;59.38;102499.50;4963493;28;20038;-77
2022/10/11 05:21:40;;;;;;;18.83;17.83;;;;;;;11.08;59.04;102506.78;5012701;28;20038;-77
2022/10/11 05:24:06;;;;;;;20.70;18.63;;;;;;;11.04;59.19;102512.59;5012591;28;20108;-77
2022/10/11 05:26:31;;;;;;;19.52;18.23;;;;;;;11.04;59.07;102517.19;5004798;28;20478;-78
2022/10/11 05:28:57;;;;;;;20.85;19.38;;;;;;;11.03;59.09;102510.91;5012901;28;20067;-79
2022/10/11 05:31:22;;;;;;;21.83;20.42;;;;;;;11.01;59.15;102512.16;4998062;28;20475;-79
2022/10/11 05:33:48;;;;;;;20.23;18.90;;;;;;;11.00;59.10;102515.91;4996516;28;20050;-79
2022/10/11 05:36:14;;;;;;;19.35;18.15;;;;;;;10.99;59.18;102525.06;5011092;28;20034;-79
2022/10/11 05:38:39;;;;;;;19.92;18.52;;;;;;;10.97;58.94;102521.72;4986322;28;20032;-77
2022/10/11 05:41:07;;;;;;;20.55;18.65;;;;;;;10.96;58.91;102522.75;5011152;28;20053;-76
2022/10/11 05:43:34;;;;;;;20.90;19.50;;;;;;;10.94;59.07;102522.13;5012871;28;20045;-79
2022/10/11 05:45:59;;;;;;;18.77;17.63;;;;;;;10.93;59.01;102515.03;5013015;28;20116;-78
2022/10/11 05:48:25;;;;;;;19.80;18.65;;;;;;;10.92;59.11;102524.22;4997748;28;20478;-78
2022/10/11 05:50:51;;;;;;;18.45;17.30;;;;;;;10.90;59.12;102523.56;5003321;28;20034;-78
2022/10/11 05:53:17;;;;;;;19.65;18.45;;;;;;;10.88;59.18;102526.47;5013375;28;20056;-78
2022/10/11 05:55:43;;;;;;;19.23;18.13;;;;;;;10.87;58.92;102530.22;4979566;28;20386;-79
2022/10/11 05:58:12;;;;;;;17.58;16.52;;;;;;;10.87;59.15;102534.78;4991887;28;20030;-80
2022/10/11 06:00:37;;;;;;;18.23;17.17;;;;;;;10.85;58.92;102534.16;5012815;28;20065;-79
2022/10/11 06:03:07;;;;;;;19.20;17.75;;;;;;;10.83;59.03;102535.19;5011231;28;20058;-79
2022/10/11 06:05:34;;;;;;;20.20;18.90;;;;;;;10.82;59.03;102544.31;4996333;28;20087;-69
2022/10/11 06:08:04;;;;;;;19.73;18.63;;;;;;;10.79;59.00;102544.72;5000841;28;20527;-73
2022/10/11 06:10:30;;;;;;;20.52;18.95;;;;;;;10.77;58.91;102548.66;5012075;28;20389;-73
2022/10/11 06:12:55;;;;;;;19.90;18.23;;;;;;;10.75;58.68;102548.84;5013555;28;20470;-73
2022/10/11 06:15:21;;;;;;;20.75;19.35;;;;;;;10.74;58.88;102547.19;5004341;28;20041;-74
2022/10/11 06:17:46;;;;;;;18.38;17.27;;;;;;;10.73;58.74;102550.09;4997425;28;20049;-75
2022/10/11 06:20:12;;;;;;;20.55;19.20;;;;;;;10.72;58.59;102548.44;4995292;28;20030;-75
2022/10/11 06:22:37;;;;;;;18.90;17.80;;;;;;;10.70;59.05;102548.63;4999182;28;20445;-74
2022/10/11 06:25:04;;;;;;;19.38;18.15;;;;;;;10.68;58.82;102547.97;4995778;28;20039;-74
2022/10/11 06:27:29;;;;;;;20.40;19.05;;;;;;;10.68;58.86;102557.97;4997028;28;20041;-72
2022/10/11 06:29:55;;;;;;;19.65;18.45;;;;;;;10.66;58.62;102557.31;4993585;28;20046;-73
2022/10/11 06:32:20;;;;;;;22.20;20.55;;;;;;;10.64;58.61;102560.25;4993415;28;20128;-73
2022/10/11 06:34:46;;;;;;;20.90;19.50;;;;;;;10.61;58.87;102564.19;4994220;28;20042;-73
2022/10/11 06:37:11;;;;;;;18.95;17.80;;;;;;;10.61;58.82;102566.06;5009766;28;20040;-73
2022/10/11 06:39:37;;;;;;;19.70;18.20;;;;;;;10.60;58.84;102564.34;5004917;28;20490;-73
2022/10/11 06:42:02;;;;;;;20.60;19.02;;;;;;;10.58;58.88;102567.28;4992248;28;20034;-73
2022/10/11 06:44:28;;;;;;;20.95;19.30;;;;;;;10.57;58.80;102567.47;5010318;28;20466;-73
2022/10/11 06:46:53;;;;;;;19.45;18.10;;;;;;;10.56;59.03;102569.34;5009901;28;20445;-73
2022/10/11 06:49:19;;;;;;;20.65;19.23;;;;;;;10.56;58.86;102577.44;4994814;28;20595;-73
2022/10/11 06:51:44;;;;;;;19.75;18.08;;;;;;;10.54;59.04;102571.41;4994586;28;20061;-73
2022/10/11 06:54:10;;;;;;;18.88;17.55;;;;;;;10.54;58.80;102578.69;5007196;28;20379;-73
2022/10/11 06:56:35;;;;;;;18.85;17.42;;;;;;;10.53;58.73;102579.69;5003708;28;20403;-73
2022/10/11 06:59:02;;;;;;;19.95;18.55;;;;;;;10.52;58.72;102573.44;4994409;28;20085;-73
2022/10/11 07:01:27;;;;;;;20.55;18.58;;;;;;;10.51;59.13;102574.50;4998501;28;20042;-73
2022/10/11 07:03:56;;;;;;;21.02;19.23;;;;;;;10.50;59.03;102582.78;5000760;28;20034;-73
2022/10/11 07:06:24;;;;;;;19.42;18.02;;;;;;;10.49;58.94;102581.13;5011836;28;20081;-73
2022/10/11 07:08:50;;;;;;;18.25;17.05;;;;;;;10.48;59.12;102587.56;5004617;28;20037;-73
2022/10/11 07:11:21;;;;;;;18.95;17.65;;;;;;;10.47;59.02;102589.41;4975483;28;20463;-73
2022/10/11 07:13:52;;;;;;;18.02;16.83;;;;;;;10.46;58.91;102592.31;4993855;28;20038;-73
2022/10/11 07:16:18;;;;;;;19.80;18.40;;;;;;;10.46;58.81;102592.31;4999446;28;20041;-73
2022/10/11 07:18:44;;;;;;;19.08;17.63;;;;;;;10.45;59.08;102596.06;4994053;28;20026;-73
2022/10/11 07:21:12;;;;;;;19.23;17.75;;;;;;;10.45;59.01;102598.75;5009446;28;20084;-73
2022/10/11 07:23:38;;;;;;;19.05;17.55;;;;;;;10.43;59.10;102612.44;5001611;28;20034;-73
2022/10/11 07:26:05;;;;;;;19.35;18.05;;;;;;;10.43;59.22;102606.22;4993089;28;20475;-74
2022/10/11 07:28:31;;;;;;;20.75;19.30;;;;;;;10.42;58.90;102608.09;5010192;28;20034;-73
2022/10/11 07:30:57;;;;;;;18.88;17.55;;;;;;;10.43;59.07;102608.91;5001456;28;20045;-73
2022/10/11 07:33:22;;;;;;;21.65;19.73;;;;;;;10.40;59.34;102608.28;4992968;28;20085;-74
2022/10/11 07:35:48;;;;;;;21.00;19.05;;;;;;;10.41;59.19;102609.13;4991916;28;20386;-73
2022/10/11 07:38:14;;;;;;;21.38;19.85;;;;;;;10.39;59.20;102617.41;4978410;28;20057;-73
2022/10/11 07:40:44;;;;;;;21.40;19.75;;;;;;;10.39;59.36;102611.19;4992009;28;20459;-73
2022/10/11 07:43:11;;;;;;;22.98;20.60;;;;;;;10.39;59.26;102616.59;4999025;28;20027;-73
2022/10/11 07:45:38;;;;;;;23.73;21.83;;;;;;;10.38;59.22;102617.59;5007446;28;20073;-72
2022/10/11 07:48:04;;;;;;;21.33;19.73;;;;;;;10.37;59.15;102614.06;4991304;28;20026;-72
2022/10/11 07:50:30;;;;;;;22.35;20.33;;;;;;;10.37;59.18;102614.06;4999143;28;20026;-72
2022/10/11 07:52:55;;;;;;;23.10;20.80;;;;;;;10.37;59.38;102614.06;5009607;28;20356;-72
2022/10/11 07:55:21;;;;;;;23.48;21.15;;;;;;;10.37;59.24;102624.06;4998940;28;20485;-72
2022/10/11 07:57:46;;;;;;;20.35;18.98;;;;;;;10.36;59.33;102617.81;4991406;28;20037;-72
2022/10/11 08:00:12;;;;;;;20.15;18.58;;;;;;;10.36;59.50;102617.00;5001676;28;20491;-72
2022/10/11 08:02:37;;;;;;;20.67;18.98;;;;;;;10.36;59.54;102619.69;5003181;28;20049;-78
2022/10/11 08:05:03;;;;;;;21.88;20.10;;;;;;;10.35;59.50;102624.22;4994494;28;20044;-71
2022/10/11 08:07:28;;;;;;;23.25;21.33;;;;;;;10.35;59.44;102618.84;5000501;28;20038;-71
2022/10/11 08:09:55;;;;;;;23.50;21.17;;;;;;;10.35;59.73;102613.44;4997934;28;20486;-72
2022/10/11 08:12:20;;;;;;;21.33;19.60;;;;;;;10.35;59.79;102624.22;4992824;28;20502;-72
2022/10/11 08:14:46;;;;;;;21.65;20.02;;;;;;;10.35;60.01;102626.09;4990148;28;20038;-72
2022/10/11 08:17:13;;;;;;;22.92;21.17;;;;;;;10.34;59.89;102619.88;4990727;28;20059;-72
2022/10/11 08:19:38;;;;;;;23.77;21.98;;;;;;;10.33;60.26;102618.22;4989504;28;20077;-72
2022/10/11 08:22:03;;;;;;;23.63;21.63;;;;;;;10.33;60.47;102628.16;4989834;28;20062;-72
2022/10/11 08:24:29;;;;;;;23.30;21.50;;;;;;;10.32;60.36;102630.03;4984711;28;20060;-72
2022/10/11 08:26:54;;;;;;;22.33;20.27;;;;;;;10.33;60.57;102629.03;4986897;28;20035;-72
2022/10/11 08:29:20;;;;;;;23.58;21.38;;;;;;;10.33;60.73;102628.16;4989781;28;20443;-73
2022/10/11 08:31:45;;;;;;;22.58;20.55;;;;;;;10.33;61.11;102636.25;4989728;28;20073;-72
2022/10/11 08:34:11;;;;;;;23.48;21.13;;;;;;;10.32;61.70;102631.91;5005737;28;20050;-72
2022/10/11 08:36:37;;;;;;;31.17;23.73;;;;;;;10.32;61.56;102631.91;4994297;28;20054;-74
2022/10/11 08:39:04;;;;;;;24.27;21.70;;;;;;;10.32;62.03;102640.84;5003563;28;20383;-74
2022/10/11 08:41:37;;;;;;;24.08;21.85;;;;;;;10.32;62.51;102640.84;4991114;28;20118;-71
2022/10/11 08:44:03;;;;;;;22.90;20.70;;;;;;;10.33;62.64;102655.16;4997576;28;20395;-71
2022/10/11 08:46:31;;;;;;;23.02;21.00;;;;;;;10.32;62.79;102640.84;4991195;28;20034;-72
2022/10/11 08:48:58;;;;;;;20.45;18.67;;;;;;;10.33;63.38;102649.78;5003013;28;20117;-74
2022/10/11 08:51:29;;;;;;;22.50;20.60;;;;;;;10.34;63.55;102654.16;5012322;28;20036;-75
2022/10/11 08:54:03;;;;;;;20.33;18.20;;;;;;;10.34;63.60;102652.28;4995659;28;20122;-71
2022/10/11 08:56:33;;;;;;;20.42;18.83;;;;;;;10.35;63.98;102655.81;5003024;28;20034;-72
2022/10/11 08:59:29;;;;;;;20.00;18.23;;;;;;;10.35;64.44;102653.94;4998519;28;20550;-73
2022/10/11 09:02:14;;;;;;;21.35;17.50;;;;;;;10.36;64.40;102657.50;4988848;28;20049;-73
2022/10/11 09:04:39;;;;;;;21.50;19.80;;;;;;;10.35;64.66;102662.06;4992304;28;20026;-72
2022/10/11 09:07:10;;;;;;;19.85;18.35;;;;;;;10.36;64.85;102652.94;4988301;28;20604;-72
2022/10/11 09:09:50;;;;;;;21.67;19.08;;;;;;;10.37;64.79;102648.38;5005347;28;20038;-73
2022/10/11 09:12:46;;;;;;;21.92;19.58;;;;;;;10.38;65.39;102650.88;5003893;28;20040;-73
2022/10/11 09:15:27;;;;;;;19.88;18.38;;;;;;;10.39;65.43;102657.13;4996616;28;20038;-72
2022/10/11 09:17:52;;;;;;;19.40;17.67;;;;;;;10.39;65.03;102657.13;5002009;28;20039;-72
2022/10/11 09:20:36;;;;;;;21.08;18.90;;;;;;;10.40;65.65;102659.59;5004576;28;20049;-72
2022/10/11 09:23:30;;;;;;;23.30;19.10;;;;;;;10.40;65.91;102654.19;4994913;28;20046;-72
2022/10/11 09:26:10;;;;;;;20.92;18.38;;;;;;;10.43;65.94;102654.84;4998542;28;20038;-72
2022/10/11 09:28:55;;;;;;;23.27;20.88;;;;;;;10.44;66.07;102661.94;4997005;28;20038;-75
2022/10/11 09:31:21;;;;;;;21.67;19.33;;;;;;;10.44;66.27;102661.94;4999137;28;20030;-73
2022/10/11 09:33:49;;;;;;;26.65;20.20;;;;;;;10.46;66.51;102659.84;5000859;28;20252;-73
2022/10/11 09:36:40;;;;;;;20.00;18.02;;;;;;;10.47;66.72;102659.66;4997199;28;20034;-75
2022/10/11 09:39:40;;;;;;;21.80;19.10;;;;;;;10.49;66.32;102656.78;4998313;28;20042;-75
2022/10/11 09:42:08;;;;;;;22.52;18.52;;;;;;;10.50;65.89;102651.16;4994773;28;20027;-75
2022/10/11 09:44:39;;;;;;;19.75;18.23;;;;;;;10.52;66.36;102651.81;5002560;28;20049;-75
2022/10/11 09:47:05;;;;;;;18.88;17.40;;;;;;;10.53;66.15;102653.50;4996344;28;20502;-73
2022/10/11 09:49:36;;;;;;;19.33;17.85;;;;;;;10.55;65.94;102661.41;5009204;28;20168;-74
2022/10/11 09:52:05;;;;;;;19.17;17.55;;;;;;;10.56;65.57;102654.97;5005656;28;20037;-74
2022/10/11 09:54:44;;;;;;;19.05;17.48;;;;;;;10.58;65.46;102655.59;5005958;28;20504;-74
2022/10/11 09:57:22;;;;;;;;;;;;;;;10.59;65.50;102660.81;5012194;28;20478;-74
2022/10/11 10:00:05;;;;;;;18.50;16.85;;;;;;;10.61;65.44;102655.22;4994383;28;20370;-73
2022/10/11 10:02:46;;;;;;;20.38;18.23;;;;;;;10.61;65.22;102656.06;5003968;28;20030;-74
2022/10/11 10:05:16;;;;;;;20.48;18.52;;;;;;;10.63;65.13;102658.53;5000964;28;20121;-74
2022/10/11 10:08:02;;;;;;;23.20;19.92;;;;;;;10.66;65.04;102655.47;5006479;28;20477;-74
2022/10/11 10:10:32;;;;;;;17.30;15.68;;;;;;;10.67;64.75;102654.44;4994547;28;20041;-74
2022/10/11 10:13:01;;;;;;;18.05;16.27;;;;;;;10.69;64.57;102660.47;5008605;28;20065;-74
2022/10/11 10:15:33;;;;;;;19.05;16.67;;;;;;;10.70;64.67;102654.03;4993303;28;20026;-74
2022/10/11 10:17:59;;;;;;;20.08;18.10;;;;;;;10.72;64.53;102653.84;5010321;28;20030;-74
2022/10/11 10:20:26;;;;;;;23.05;19.77;;;;;;;10.73;64.36;102658.19;4974660;28;20042;-73
2022/10/11 10:22:52;;;;;;;19.73;17.95;;;;;;;10.75;64.47;102659.69;4994232;28;20109;-75
2022/10/11 10:25:33;;;;;;;20.95;18.42;;;;;;;10.78;64.25;102661.16;5011776;28;20052;-75
2022/10/11 10:28:02;;;;;;;18.48;17.08;;;;;;;10.78;64.21;102661.16;5002712;28;20038;-75
2022/10/11 10:30:28;;;;;;;20.13;17.20;;;;;;;10.80;64.23;102653.69;5000669;28;20040;-75
2022/10/11 10:33:22;;;;;;;19.35;17.75;;;;;;;10.82;63.99;102651.63;4992244;28;20030;-75
2022/10/11 10:35:52;;;;;;;18.98;17.45;;;;;;;10.84;64.08;102657.69;4991171;28;20052;-74
2022/10/11 10:38:33;;;;;;;18.90;17.13;;;;;;;10.84;63.92;102652.28;5004378;28;20474;-75
2022/10/11 10:41:05;;;;;;;19.80;18.08;;;;;;;10.86;63.74;102650.22;4992330;28;20046;-75
2022/10/11 10:43:36;;;;;;;19.25;17.42;;;;;;;10.88;63.54;102636.47;5005352;28;20032;-73
2022/10/11 10:46:07;;;;;;;18.88;17.33;;;;;;;10.89;63.42;102644.41;5004398;28;20045;-74
2022/10/11 10:48:40;;;;;;;18.63;17.15;;;;;;;10.91;63.15;102645.03;4991208;28;20062;-74
2022/10/11 10:51:19;;;;;;;19.67;17.80;;;;;;;10.93;62.92;102639.41;4992963;28;20026;-74
2022/10/11 10:53:48;;;;;;;;;;;;;;;10.94;62.63;102638.41;4998502;28;20109;-74
2022/10/11 10:56:26;;;;;;;18.48;17.02;;;;;;;10.95;62.77;102640.88;5011348;28;19917;-75
2022/10/11 10:59:27;;;;;;;21.00;19.17;;;;;;;10.96;62.75;102633.59;5010896;28;20044;-75
2022/10/11 11:02:07;;;;;;;21.00;19.23;;;;;;;10.98;62.24;102632.38;4995919;28;20026;-75
2022/10/11 11:04:34;;;;;;;17.73;16.30;;;;;;;11.01;62.12;102644.66;5009250;28;20475;-75
2022/10/11 11:07:44;;;;;;;18.98;17.05;;;;;;;11.01;61.97;102645.53;5008721;28;20497;-74
2022/10/11 11:10:19;;;;;;;19.85;18.25;;;;;;;11.02;61.89;102639.06;5010648;28;20030;-74
2022/10/11 11:13:27;;;;;;;19.92;18.38;;;;;;;11.04;61.98;102639.72;5007891;28;20037;-74
2022/10/11 11:16:08;;;;;;;18.52;17.23;;;;;;;11.06;61.86;102642.19;4999257;28;20120;-74
2022/10/11 11:18:59;;;;;;;19.20;17.50;;;;;;;11.08;61.97;102632.00;4998847;28;20057;-74
2022/10/11 11:21:32;;;;;;;19.85;18.27;;;;;;;11.09;61.62;102628.28;4999491;28;20026;-74